createdAt,value
2023-04-29T00:01:12.841Z,3.98
2023-04-29T00:03:41.103Z,3.97
2023-04-29T00:06:11.605Z,3.97
2023-04-29T00:08:40.455Z,3.93
2023-04-29T00:11:08.437Z,3.90
2023-04-29T00:13:36.568Z,3.87
2023-04-29T00:16:05.656Z,3.87
2023-04-29T00:18:34.148Z,3.86
2023-04-29T00:21:02.352Z,3.86
2023-04-29T00:23:30.600Z,3.84
2023-04-29T00:25:58.779Z,3.83
2023-04-29T00:28:26.854Z,3.84
2023-04-29T00:30:56.442Z,3.86
2023-04-29T00:33:24.744Z,3.91
2023-04-29T00:35:53.120Z,3.93
2023-04-29T00:38:21.429Z,3.90
2023-04-29T00:40:50.279Z,3.91
2023-04-29T00:43:18.350Z,3.93
2023-04-29T00:45:47.248Z,3.97
2023-04-29T00:48:16.142Z,4.00
2023-04-29T00:50:44.157Z,4.02
2023-04-29T00:53:13.111Z,4.02
2023-04-29T00:55:42.436Z,4.00
2023-04-29T00:58:12.101Z,4.00
2023-04-29T01:00:42.014Z,3.98
2023-04-29T01:03:11.013Z,3.92
2023-04-29T01:05:39.694Z,3.87
2023-04-29T01:08:31.877Z,3.83
2023-04-29T01:11:02.977Z,3.79
2023-04-29T01:13:35.449Z,3.78
2023-04-29T01:16:11.647Z,3.75
2023-04-29T01:18:45.587Z,3.67
2023-04-29T01:21:18.242Z,3.62
2023-04-29T01:23:46.488Z,3.57
2023-04-29T01:26:15.268Z,3.51
2023-04-29T01:29:28.913Z,3.43
2023-04-29T01:32:05.688Z,3.38
2023-04-29T01:35:01.112Z,3.33
2023-04-29T01:37:42.274Z,3.27
2023-04-29T01:40:17.821Z,3.21
2023-04-29T01:43:03.531Z,3.18
2023-04-29T01:45:34.762Z,3.14
2023-04-29T01:48:05.031Z,3.10
2023-04-29T01:50:33.360Z,3.07
2023-04-29T01:53:09.421Z,3.00
2023-04-29T01:55:37.808Z,2.96
2023-04-29T01:58:20.533Z,2.94
2023-04-29T02:01:03.773Z,2.91
2023-04-29T02:03:33.330Z,2.89
2023-04-29T02:06:02.950Z,2.88
2023-04-29T02:08:31.330Z,2.87
2023-04-29T02:11:00.557Z,2.87
2023-04-29T02:13:42.255Z,2.88
2023-04-29T02:16:13.353Z,2.86
2023-04-29T02:18:48.600Z,2.82
2023-04-29T02:21:16.899Z,2.79
2023-04-29T02:23:45.066Z,2.73
2023-04-29T02:26:14.254Z,2.70
2023-04-29T02:28:42.531Z,2.68
2023-04-29T02:31:10.608Z,2.66
2023-04-29T02:33:38.788Z,2.66
2023-04-29T02:36:06.851Z,2.65
2023-04-29T02:38:34.780Z,2.66
2023-04-29T02:41:02.825Z,2.65
2023-04-29T02:43:31.584Z,2.66
2023-04-29T02:46:00.628Z,2.66
2023-04-29T02:48:29.258Z,2.67
2023-04-29T02:50:57.272Z,2.66
2023-04-29T02:53:25.708Z,2.66
2023-04-29T02:55:53.713Z,2.66
2023-04-29T02:58:22.354Z,2.65
2023-04-29T03:00:51.265Z,2.64
2023-04-29T03:03:19.657Z,2.62
2023-04-29T03:05:47.812Z,2.55
2023-04-29T03:08:16.506Z,2.51
2023-04-29T03:10:44.777Z,2.46
2023-04-29T03:13:13.058Z,2.45
2023-04-29T03:15:41.322Z,2.42
2023-04-29T03:18:09.993Z,2.41
2023-04-29T03:20:38.602Z,2.41
2023-04-29T03:23:06.767Z,2.41
2023-04-29T03:25:37.239Z,2.41
2023-04-29T03:28:05.581Z,2.44
2023-04-29T03:30:33.846Z,2.49
2023-04-29T03:33:02.119Z,2.51
2023-04-29T03:35:30.735Z,2.53
2023-04-29T03:38:19.052Z,2.57
2023-04-29T03:40:48.048Z,2.64
2023-04-29T03:43:17.142Z,2.71
2023-04-29T03:45:45.756Z,2.79
2023-04-29T03:48:15.436Z,2.83
2023-04-29T03:50:43.715Z,2.90
2023-04-29T03:53:12.960Z,2.97
2023-04-29T03:55:41.084Z,3.01
2023-04-29T03:58:10.756Z,3.09
2023-04-29T04:00:38.984Z,3.17
2023-04-29T04:03:09.499Z,3.24
2023-04-29T04:05:39.519Z,3.28
2023-04-29T04:08:11.381Z,3.32
2023-04-29T04:10:45.290Z,3.40
2023-04-29T04:13:43.464Z,3.51
2023-04-29T04:16:11.880Z,3.59
2023-04-29T04:18:40.636Z,3.65
2023-04-29T04:21:12.842Z,3.70
2023-04-29T04:23:44.183Z,3.80
2023-04-29T04:26:14.165Z,3.88
2023-04-29T04:28:48.181Z,3.97
2023-04-29T04:31:29.513Z,4.07
2023-04-29T04:33:59.931Z,4.14
2023-04-29T04:36:28.784Z,4.23
2023-04-29T04:38:57.161Z,4.32
2023-04-29T04:41:25.735Z,4.40
2023-04-29T04:43:54.839Z,4.48
2023-04-29T04:46:43.377Z,4.57
2023-04-29T04:49:16.872Z,4.67
2023-04-29T04:51:51.698Z,4.77
2023-04-29T04:54:20.611Z,4.88
2023-04-29T04:56:52.444Z,4.99
2023-04-29T04:59:21.061Z,5.08
2023-04-29T05:01:49.328Z,5.15
2023-04-29T05:04:17.523Z,5.23
2023-04-29T05:06:46.927Z,5.31
2023-04-29T05:09:15.094Z,5.41
2023-04-29T05:11:43.467Z,5.47
2023-04-29T05:14:13.821Z,5.54
2023-04-29T05:16:43.899Z,5.61
2023-04-29T05:19:12.830Z,5.69
2023-04-29T05:21:41.899Z,5.77
2023-04-29T05:24:11.273Z,5.87
2023-04-29T05:26:39.495Z,5.96
2023-04-29T05:29:07.837Z,6.06
2023-04-29T05:31:44.215Z,6.16
2023-04-29T05:34:12.303Z,6.24
2023-04-29T05:36:40.360Z,6.32
2023-04-29T05:39:08.331Z,6.41
2023-04-29T05:41:36.627Z,6.51
2023-04-29T05:44:07.417Z,6.57
2023-04-29T05:46:35.621Z,6.65
2023-04-29T05:49:04.007Z,6.74
2023-04-29T05:51:32.992Z,6.84
2023-04-29T05:54:01.179Z,6.94
2023-04-29T05:56:31.585Z,7.04
2023-04-29T05:58:59.864Z,7.14
2023-04-29T06:01:28.145Z,7.22
2023-04-29T06:03:57.232Z,7.32
2023-04-29T06:06:26.135Z,7.41
2023-04-29T06:09:26.482Z,7.50
2023-04-29T06:11:56.572Z,7.61
2023-04-29T06:14:24.763Z,7.71
2023-04-29T06:16:53.952Z,7.80
2023-04-29T06:19:22.431Z,7.90
2023-04-29T06:21:51.224Z,8.01
2023-04-29T06:24:19.506Z,8.11
2023-04-29T06:26:49.007Z,8.22
2023-04-29T06:29:17.177Z,8.32
2023-04-29T06:31:45.742Z,8.41
2023-04-29T06:34:13.936Z,8.51
2023-04-29T06:37:08.050Z,8.61
2023-04-29T06:39:52.911Z,8.71
2023-04-29T06:42:39.894Z,8.82
2023-04-29T06:45:40.120Z,8.95
2023-04-29T06:48:21.301Z,9.04
2023-04-29T06:50:58.048Z,9.12
2023-04-29T06:53:26.257Z,9.21
2023-04-29T06:55:55.269Z,9.31
2023-04-29T06:58:23.416Z,9.43
2023-04-29T07:00:52.253Z,9.53
2023-04-29T07:03:20.562Z,9.63
2023-04-29T07:05:48.768Z,9.71
2023-04-29T07:08:16.937Z,9.82
2023-04-29T07:10:45.016Z,9.87
2023-04-29T07:13:13.085Z,9.94
2023-04-29T07:15:41.464Z,10.03
2023-04-29T07:18:09.554Z,10.14
2023-04-29T07:20:37.915Z,10.27
2023-04-29T07:23:06.225Z,10.34
2023-04-29T07:25:34.464Z,10.44
2023-04-29T07:28:02.616Z,10.48
2023-04-29T07:30:30.891Z,10.59
2023-04-29T07:32:59.019Z,10.62
2023-04-29T07:35:27.743Z,10.62
2023-04-29T07:37:57.180Z,10.71
2023-04-29T07:40:26.706Z,10.82
2023-04-29T07:42:58.960Z,10.89
2023-04-29T07:45:27.226Z,10.98
2023-04-29T07:47:55.380Z,11.12
2023-04-29T07:50:23.870Z,11.26
2023-04-29T07:52:52.163Z,11.37
2023-04-29T07:55:21.363Z,11.49
2023-04-29T07:57:49.437Z,11.65
2023-04-29T08:00:18.136Z,11.79
2023-04-29T08:02:55.888Z,11.91
2023-04-29T08:05:25.520Z,11.97
2023-04-29T08:07:54.236Z,12.08
2023-04-29T08:10:22.839Z,12.20
2023-04-29T08:12:51.383Z,12.32
2023-04-29T08:15:20.476Z,12.48
2023-04-29T08:17:48.614Z,12.64
2023-04-29T08:20:16.955Z,12.80
2023-04-29T08:22:45.003Z,12.96
2023-04-29T08:25:13.084Z,13.11
2023-04-29T08:27:43.802Z,13.26
2023-04-29T08:30:12.862Z,13.39
2023-04-29T08:32:40.803Z,13.48
2023-04-29T08:35:09.622Z,13.55
2023-04-29T08:37:38.054Z,13.63
2023-04-29T08:40:08.247Z,13.73
2023-04-29T08:42:37.911Z,13.86
2023-04-29T08:45:07.469Z,13.97
2023-04-29T08:47:37.337Z,14.09
2023-04-29T08:50:06.686Z,14.19
2023-04-29T08:52:34.662Z,14.31
2023-04-29T08:55:03.420Z,14.42
2023-04-29T08:57:40.142Z,14.55
2023-04-29T09:00:13.405Z,14.66
2023-04-29T09:02:51.718Z,14.75
2023-04-29T09:05:20.707Z,14.86
2023-04-29T09:07:51.038Z,14.97
2023-04-29T09:10:19.771Z,15.06
2023-04-29T09:12:47.916Z,15.17
2023-04-29T09:15:16.096Z,15.27
2023-04-29T09:17:48.802Z,15.34
2023-04-29T09:20:22.853Z,15.32
2023-04-29T09:22:52.985Z,15.23
2023-04-29T09:25:21.989Z,15.33
2023-04-29T09:27:51.395Z,15.35
2023-04-29T09:30:19.746Z,15.41
2023-04-29T09:33:08.574Z,15.46
2023-04-29T09:35:37.121Z,15.55
2023-04-29T09:38:16.049Z,15.60
2023-04-29T09:40:58.144Z,15.68
2023-04-29T09:43:27.664Z,15.77
2023-04-29T09:45:55.848Z,15.81
2023-04-29T09:48:32.713Z,15.89
2023-04-29T09:51:03.393Z,15.98
2023-04-29T09:53:32.159Z,15.84
2023-04-29T09:56:04.056Z,15.74
2023-04-29T09:58:37.883Z,15.68
2023-04-29T10:01:07.660Z,15.68
2023-04-29T10:03:38.652Z,15.83
2023-04-29T10:06:08.344Z,15.93
2023-04-29T10:08:36.364Z,16.01
2023-04-29T10:11:06.061Z,16.03
2023-04-29T10:13:38.564Z,16.10
2023-04-29T10:16:12.963Z,16.16
2023-04-29T10:18:45.012Z,16.29
2023-04-29T10:21:14.078Z,16.38
2023-04-29T10:23:45.313Z,16.49
2023-04-29T10:26:17.059Z,16.59
2023-04-29T10:28:48.138Z,16.69
2023-04-29T10:31:18.268Z,16.78
2023-04-29T10:33:47.883Z,16.87
2023-04-29T10:36:17.692Z,16.97
2023-04-29T10:38:51.954Z,17.04
2023-04-29T10:41:27.126Z,17.03
2023-04-29T10:43:55.921Z,17.08
2023-04-29T10:46:29.019Z,17.19
2023-04-29T10:49:05.113Z,17.27
2023-04-29T10:51:45.932Z,17.38
2023-04-29T10:54:15.776Z,17.49
2023-04-29T10:56:51.492Z,17.54
2023-04-29T10:59:28.893Z,17.62
2023-04-29T11:01:57.057Z,17.66
2023-04-29T11:04:26.132Z,17.72
2023-04-29T11:06:58.205Z,17.84
2023-04-29T11:09:34.278Z,17.93
2023-04-29T11:12:03.683Z,18.05
2023-04-29T11:14:40.670Z,18.17
2023-04-29T11:17:13.291Z,18.24
2023-04-29T11:19:46.761Z,17.93
2023-04-29T11:22:17.988Z,18.01
2023-04-29T11:24:56.465Z,18.05
2023-04-29T11:27:27.387Z,18.09
2023-04-29T11:30:00.576Z,18.19
2023-04-29T11:32:36.605Z,18.27
2023-04-29T11:35:09.540Z,18.38
2023-04-29T11:37:38.119Z,18.48
2023-04-29T11:40:08.008Z,18.56
2023-04-29T11:42:40.838Z,18.61
2023-04-29T11:45:09.449Z,18.70
2023-04-29T11:47:37.622Z,18.78
2023-04-29T11:50:08.872Z,18.86
2023-04-29T11:52:38.413Z,18.74
2023-04-29T11:55:09.419Z,18.59
2023-04-29T11:57:39.330Z,18.63
2023-04-29T12:00:13.148Z,18.71
2023-04-29T12:02:46.550Z,18.78
2023-04-29T12:05:17.589Z,18.60
2023-04-29T12:07:46.458Z,18.69
2023-04-29T12:10:14.356Z,18.72
2023-04-29T12:12:44.296Z,18.84
2023-04-29T12:15:13.471Z,18.98
2023-04-29T12:17:43.736Z,19.04
2023-04-29T12:20:12.891Z,19.05
2023-04-29T12:22:44.165Z,19.05
2023-04-29T12:25:12.824Z,19.05
2023-04-29T12:27:44.381Z,18.89
2023-04-29T12:30:13.054Z,18.85
2023-04-29T12:32:42.183Z,18.66
2023-04-29T12:35:18.167Z,18.84
2023-04-29T12:37:51.102Z,18.97
2023-04-29T12:40:20.918Z,19.04
2023-04-29T12:42:49.278Z,19.11
2023-04-29T12:45:32.103Z,19.20
2023-04-29T12:48:01.934Z,19.18
2023-04-29T12:50:39.025Z,19.17
2023-04-29T12:53:08.896Z,19.31
2023-04-29T12:55:38.467Z,19.45
2023-04-29T12:58:07.723Z,19.61
2023-04-29T13:00:37.614Z,19.74
2023-04-29T13:03:07.409Z,19.87
2023-04-29T13:05:35.920Z,19.98
2023-04-29T13:08:06.991Z,20.07
2023-04-29T13:10:36.142Z,20.17
2023-04-29T13:13:04.228Z,20.26
2023-04-29T13:15:33.531Z,20.33
2023-04-29T13:18:02.598Z,20.41
2023-04-29T13:20:30.962Z,20.51
2023-04-29T13:22:59.275Z,20.61
2023-04-29T13:25:27.556Z,20.70
2023-04-29T13:27:55.737Z,20.78
2023-04-29T13:30:23.960Z,20.80
2023-04-29T13:32:55.519Z,20.79
2023-04-29T13:35:28.040Z,20.85
2023-04-29T13:37:57.139Z,20.94
2023-04-29T13:40:28.088Z,20.98
2023-04-29T13:43:04.352Z,20.93
2023-04-29T13:45:38.922Z,20.69
2023-04-29T13:48:24.678Z,20.63
2023-04-29T13:59:08.968Z,20.61
2023-04-29T14:02:00.295Z,20.17
2023-04-29T14:04:06.926Z,20.21
2023-04-29T14:06:35.102Z,20.31
2023-04-29T14:09:04.221Z,20.40
2023-04-29T14:11:36.670Z,20.45
2023-04-29T14:14:05.155Z,20.45
2023-04-29T14:16:33.287Z,20.46
2023-04-29T14:19:03.835Z,20.38
2023-04-29T14:21:33.811Z,20.23
2023-04-29T14:24:03.601Z,20.27
2023-04-29T14:26:32.275Z,20.26
2023-04-29T14:29:00.639Z,20.33
2023-04-29T14:31:31.338Z,20.36
2023-04-29T14:33:59.878Z,20.28
2023-04-29T14:36:28.456Z,20.20
2023-04-29T14:38:56.728Z,20.15
2023-04-29T14:41:25.803Z,20.19
2023-04-29T14:43:54.022Z,20.25
2023-04-29T14:46:22.775Z,20.31
2023-04-29T14:48:50.960Z,20.29
2023-04-29T14:51:19.050Z,20.15
2023-04-29T14:53:47.119Z,19.85
2023-04-29T14:56:17.936Z,19.86
2023-04-29T14:58:45.953Z,19.81
2023-04-29T15:01:14.174Z,19.79
2023-04-29T15:03:44.744Z,19.80
2023-04-29T15:06:14.254Z,19.79
2023-04-29T15:08:42.395Z,19.77
2023-04-29T15:11:10.796Z,19.74
2023-04-29T15:13:39.380Z,19.70
2023-04-29T15:16:08.427Z,19.62
2023-04-29T15:18:36.836Z,19.54
2023-04-29T15:21:05.240Z,19.48
2023-04-29T15:23:33.517Z,19.40
2023-04-29T15:26:01.565Z,19.30
2023-04-29T15:28:29.744Z,19.23
2023-04-29T15:30:59.956Z,19.18
2023-04-29T15:33:28.027Z,19.14
2023-04-29T15:35:57.141Z,19.00
2023-04-29T15:38:25.615Z,18.89
2023-04-29T15:40:59.416Z,18.77
2023-04-29T15:43:28.418Z,18.71
2023-04-29T15:45:57.263Z,18.67
2023-04-29T15:48:25.340Z,18.63
2023-04-29T15:50:53.856Z,18.58
2023-04-29T15:53:23.470Z,18.40
2023-04-29T15:55:51.834Z,18.32
2023-04-29T15:58:19.907Z,18.25
2023-04-29T16:00:48.139Z,18.21
2023-04-29T16:03:16.540Z,18.17
2023-04-29T16:05:45.145Z,18.11
2023-04-29T16:08:13.432Z,18.05
2023-04-29T16:10:41.811Z,17.97
2023-04-29T16:13:09.989Z,17.91
2023-04-29T16:15:38.475Z,17.86
2023-04-29T16:18:06.747Z,17.79
2023-04-29T16:20:34.912Z,17.73
2023-04-29T16:23:03.303Z,17.68
2023-04-29T16:25:31.470Z,17.60
2023-04-29T16:27:59.543Z,17.54
2023-04-29T16:30:28.332Z,17.46
2023-04-29T16:32:56.393Z,17.39
2023-04-29T16:35:26.676Z,17.34
2023-04-29T16:37:58.088Z,17.31
2023-04-29T16:40:26.460Z,17.26
2023-04-29T16:42:54.710Z,17.22
2023-04-29T16:45:25.269Z,17.16
2023-04-29T16:47:54.808Z,17.12
2023-04-29T16:50:23.162Z,17.09
2023-04-29T16:52:51.647Z,17.06
2023-04-29T16:55:19.891Z,17.03
2023-04-29T16:57:47.979Z,16.98
2023-04-29T17:00:16.356Z,16.95
2023-04-29T17:02:46.746Z,16.90
2023-04-29T17:05:19.005Z,16.86
2023-04-29T17:07:47.526Z,16.81
2023-04-29T17:10:15.605Z,16.76
2023-04-29T17:12:44.293Z,16.70
2023-04-29T17:15:12.471Z,16.65
2023-04-29T17:17:40.662Z,16.60
2023-04-29T17:20:09.472Z,16.55
2023-04-29T17:22:37.498Z,16.50
2023-04-29T17:25:08.471Z,16.44
2023-04-29T17:27:37.734Z,16.39
2023-04-29T17:30:06.452Z,16.33
2023-04-29T17:32:39.352Z,16.28
2023-04-29T17:35:09.609Z,16.22
2023-04-29T17:37:38.337Z,16.16
2023-04-29T17:40:07.217Z,16.09
2023-04-29T17:42:35.277Z,16.00
2023-04-29T17:45:03.761Z,15.92
2023-04-29T17:47:31.959Z,15.86
2023-04-29T17:50:01.946Z,15.79
2023-04-29T17:52:31.682Z,15.73
2023-04-29T17:54:59.739Z,15.65
2023-04-29T17:57:31.087Z,15.57
2023-04-29T17:59:59.234Z,15.45
2023-04-29T18:02:27.808Z,15.35
2023-04-29T18:04:56.424Z,15.26
2023-04-29T18:07:24.921Z,15.17
2023-04-29T18:09:53.105Z,15.11
2023-04-29T18:12:22.699Z,15.04
2023-04-29T18:14:51.922Z,14.98
2023-04-29T18:17:20.177Z,14.91
2023-04-29T18:19:49.732Z,14.83
2023-04-29T18:22:17.780Z,14.75
2023-04-29T18:24:48.545Z,14.68
2023-04-29T18:27:16.749Z,14.59
2023-04-29T18:29:45.459Z,14.54
2023-04-29T18:32:13.650Z,14.47
2023-04-29T18:34:42.517Z,14.39
2023-04-29T18:37:11.400Z,14.32
2023-04-29T18:39:39.563Z,14.27
2023-04-29T18:42:07.636Z,14.18
2023-04-29T18:44:35.550Z,14.10
2023-04-29T18:47:03.682Z,14.02
2023-04-29T18:49:31.827Z,14.00
2023-04-29T18:52:01.561Z,13.96
2023-04-29T18:54:29.652Z,13.93
2023-04-29T18:56:58.866Z,13.89
2023-04-29T18:59:27.061Z,13.85
2023-04-29T19:01:55.320Z,13.82
2023-04-29T19:04:23.717Z,13.75
2023-04-29T19:06:52.055Z,13.70
2023-04-29T19:09:20.320Z,13.65
2023-04-29T19:11:48.394Z,13.60
2023-04-29T19:14:16.670Z,13.55
2023-04-29T19:16:44.736Z,13.51
2023-04-29T19:19:12.689Z,13.46
2023-04-29T19:21:40.885Z,13.41
2023-04-29T19:24:09.070Z,13.36
2023-04-29T19:26:39.481Z,13.29
2023-04-29T19:29:08.380Z,13.22
2023-04-29T19:31:36.462Z,13.15
2023-04-29T19:34:04.515Z,13.10
2023-04-29T19:36:33.404Z,13.05
2023-04-29T19:39:03.971Z,13.00
2023-04-29T19:41:34.569Z,12.95
2023-04-29T19:44:03.158Z,12.88
2023-04-29T19:46:31.695Z,12.81
2023-04-29T19:49:00.137Z,12.72
2023-04-29T19:51:28.351Z,12.65
2023-04-29T19:53:56.874Z,12.58
2023-04-29T19:56:24.952Z,12.51
2023-04-29T19:58:53.344Z,12.46
2023-04-29T20:01:21.466Z,12.39
2023-04-29T20:03:49.714Z,12.31
2023-04-29T20:06:17.901Z,12.28
2023-04-29T20:08:46.542Z,12.25
2023-04-29T20:11:15.031Z,12.19
2023-04-29T20:13:43.191Z,12.15
2023-04-29T20:16:11.499Z,12.09
2023-04-29T20:18:41.079Z,12.02
2023-04-29T20:21:09.154Z,11.93
2023-04-29T20:23:37.221Z,11.85
2023-04-29T20:26:05.503Z,11.76
2023-04-29T20:28:33.651Z,11.68
2023-04-29T20:31:01.844Z,11.61
2023-04-29T20:33:30.154Z,11.51
2023-04-29T20:36:05.461Z,11.46
2023-04-29T20:38:35.271Z,11.41
2023-04-29T20:41:05.953Z,11.36
2023-04-29T20:43:34.237Z,11.34
2023-04-29T20:46:03.251Z,11.29
2023-04-29T20:48:31.597Z,11.22
2023-04-29T20:50:59.627Z,11.16
2023-04-29T20:53:27.939Z,11.09
2023-04-29T20:55:55.979Z,11.03
2023-04-29T20:58:24.154Z,10.97
2023-04-29T21:00:52.225Z,10.92
2023-04-29T21:03:22.465Z,10.87
2023-04-29T21:05:54.748Z,10.82
2023-04-29T21:08:23.101Z,10.79
2023-04-29T21:10:51.483Z,10.73
2023-04-29T21:13:19.662Z,10.67
2023-04-29T21:15:48.018Z,10.62
2023-04-29T21:18:16.369Z,10.54
2023-04-29T21:20:44.792Z,10.48
2023-04-29T21:23:12.884Z,10.41
2023-04-29T21:25:41.233Z,10.34
2023-04-29T21:28:09.320Z,10.30
2023-04-29T21:30:37.628Z,10.27
2023-04-29T21:33:06.021Z,10.26
2023-04-29T21:35:34.243Z,10.22
2023-04-29T21:38:02.434Z,10.22
2023-04-29T21:40:30.609Z,10.19
2023-04-29T21:42:59.481Z,10.17
2023-04-29T21:45:27.767Z,10.12
2023-04-29T21:48:04.038Z,10.04
2023-04-29T21:50:33.017Z,9.98
2023-04-29T21:53:01.088Z,9.95
2023-04-29T21:55:29.154Z,9.88
2023-04-29T21:57:57.228Z,9.80
2023-04-29T22:00:33.268Z,9.71
2023-04-29T22:03:06.236Z,9.67
2023-04-29T22:05:35.615Z,9.64
2023-04-29T22:08:07.404Z,9.59
2023-04-29T22:10:35.696Z,9.55
2023-04-29T22:13:03.690Z,9.53
2023-04-29T22:15:32.070Z,9.49
2023-04-29T22:18:00.208Z,9.48
2023-04-29T22:20:28.619Z,9.47
2023-04-29T22:22:57.308Z,9.41
2023-04-29T22:25:25.579Z,9.38
2023-04-29T22:27:53.656Z,9.32
2023-04-29T22:30:21.822Z,9.29
2023-04-29T22:32:50.064Z,9.25
2023-04-29T22:35:18.387Z,9.21
2023-04-29T22:37:46.566Z,9.18
2023-04-29T22:40:14.943Z,9.15
2023-04-29T22:42:43.218Z,9.15
2023-04-29T22:45:12.537Z,9.12
2023-04-29T22:47:40.966Z,9.12
2023-04-29T22:50:10.404Z,9.10
2023-04-29T22:52:38.421Z,9.07
2023-04-29T22:55:07.241Z,9.04
2023-04-29T22:57:35.422Z,9.01
2023-04-29T23:00:03.793Z,8.95
2023-04-29T23:02:31.926Z,8.91
2023-04-29T23:05:00.147Z,8.89
2023-04-29T23:07:28.941Z,8.87
2023-04-29T23:09:57.039Z,8.84
2023-04-29T23:12:25.342Z,8.80
2023-04-29T23:14:53.980Z,8.77
2023-04-29T23:17:22.247Z,8.78
2023-04-29T23:19:50.301Z,8.77
2023-04-29T23:22:18.607Z,8.77
2023-04-29T23:24:46.659Z,8.75
2023-04-29T23:27:14.749Z,8.72
2023-04-29T23:29:42.815Z,8.69
2023-04-29T23:32:10.993Z,8.66
2023-04-29T23:34:39.328Z,8.66
2023-04-29T23:37:07.442Z,8.66
2023-04-29T23:39:35.604Z,8.63
2023-04-29T23:42:03.722Z,8.58
2023-04-29T23:44:31.761Z,8.57
2023-04-29T23:46:59.834Z,8.54
2023-04-29T23:49:28.643Z,8.50
2023-04-29T23:51:56.791Z,8.48
2023-04-29T23:54:24.870Z,8.47
2023-04-29T23:56:52.946Z,8.47
2023-04-29T23:59:20.914Z,8.48
